Time;durP1;ratioP1;P1;durP2;ratioP2;P2;SDS_P1;SDS_P2;PMS_P1;PMS_P2;Temp;Humidity;BMP_temperature;BMP_pressure;BME280_temperature;BME280_humidity;BME280_pressure;Samples;Min_cycle;Max_cycle;Signal;HPM_P1;HPM_P2
2022/01/27 00:07:43;;;;;;;15.63;8.32;;;2.10;90.30;;;;;;5010063;28;20044;-81
2022/01/27 00:10:28;;;;;;;20.85;8.82;;;2.10;90.30;;;;;;5012259;28;20418;-81
2022/01/27 00:12:55;;;;;;;15.73;7.65;;;2.10;90.30;;;;;;4995559;28;20037;-81
2022/01/27 00:15:28;;;;;;;17.83;9.10;;;2.10;90.30;;;;;;5016778;28;20090;-81
2022/01/27 00:17:58;;;;;;;19.17;8.25;;;2.00;90.30;;;;;;5015224;28;20041;-81
2022/01/27 00:20:24;;;;;;;16.70;8.30;;;2.10;90.30;;;;;;5019480;28;20372;-81
2022/01/27 00:22:49;;;;;;;19.30;9.13;;;2.00;90.20;;;;;;5002893;28;20025;-81
2022/01/27 00:25:15;;;;;;;16.33;8.70;;;2.00;90.30;;;;;;5002381;28;20510;-81
2022/01/27 00:27:41;;;;;;;20.40;9.15;;;2.00;90.30;;;;;;5031865;28;20072;-81
2022/01/27 00:30:07;;;;;;;20.63;9.13;;;2.00;90.30;;;;;;4984295;28;20041;-82
2022/01/27 00:32:33;;;;;;;23.60;10.23;;;2.00;90.30;;;;;;5007338;28;20044;-81
2022/01/27 00:34:59;;;;;;;18.83;9.45;;;2.00;90.30;;;;;;4998073;28;20042;-81
2022/01/27 00:37:25;;;;;;;19.27;9.60;;;2.00;90.30;;;;;;5025349;28;20038;-81
2022/01/27 00:39:50;;;;;;;19.77;8.85;;;2.00;90.30;;;;;;5006900;28;20060;-81
2022/01/27 00:42:16;;;;;;;22.48;10.43;;;2.00;90.30;;;;;;5032257;28;20502;-81
2022/01/27 00:44:41;;;;;;;20.42;10.18;;;2.00;90.30;;;;;;5022026;28;20837;-81
2022/01/27 00:47:07;;;;;;;20.75;9.60;;;2.00;90.30;;;;;;5007896;28;20529;-81
2022/01/27 00:49:33;;;;;;;19.00;9.77;;;2.00;90.30;;;;;;5046237;28;20131;-81
2022/01/27 00:52:01;;;;;;;21.52;10.82;;;2.00;90.30;;;;;;5002303;28;20041;-81
2022/01/27 00:54:28;;;;;;;19.33;9.70;;;2.00;90.30;;;;;;5021219;28;20502;-81
2022/01/27 00:57:13;;;;;;;22.27;10.48;;;2.00;90.30;;;;;;5030253;28;20093;-81
2022/01/27 00:59:53;;;;;;;17.70;9.52;;;2.00;90.30;;;;;;5001171;28;20479;-81
2022/01/27 01:05:15;;;;;;;22.92;11.10;;;1.90;90.30;;;;;;5045289;28;20040;-81
2022/01/27 01:07:44;;;;;;;23.60;10.40;;;1.90;90.30;;;;;;5015272;28;20028;-81
2022/01/27 01:15:29;;;;;;;22.42;11.07;;;1.90;90.30;;;;;;5044775;28;20036;-81
2022/01/27 01:18:24;;;;;;;22.35;10.20;;;1.90;90.30;;;;;;5031860;28;20037;-81
2022/01/27 01:34:28;;;;;;;21.52;10.95;;;1.90;90.30;;;;;;5001997;28;20094;-81
2022/01/27 01:37:00;;;;;;;20.33;10.20;;;1.90;90.40;;;;;;5045237;28;20036;-81
2022/01/27 01:39:28;;;;;;;19.80;10.07;;;1.90;90.30;;;;;;5023069;28;20037;-82
2022/01/27 01:41:53;;;;;;;22.15;11.35;;;1.90;90.40;;;;;;5022085;28;20032;-82
2022/01/27 01:44:19;;;;;;;27.05;12.77;;;1.90;90.40;;;;;;5016424;28;20094;-84
2022/01/27 01:46:45;;;;;;;25.35;11.95;;;1.90;90.40;;;;;;4997140;28;20475;-81
2022/01/27 01:49:10;;;;;;;25.98;12.85;;;1.80;90.40;;;;;;5014911;28;20086;-81
2022/01/27 01:51:36;;;;;;;27.25;11.30;;;1.90;90.40;;;;;;5024861;28;20063;-81
2022/01/27 01:54:02;;;;;;;26.02;12.00;;;1.90;90.40;;;;;;4993738;28;20131;-81
2022/01/27 01:56:28;;;;;;;26.88;13.15;;;1.80;90.40;;;;;;5003436;28;20516;-81
2022/01/27 01:58:53;;;;;;;29.55;14.30;;;1.80;90.40;;;;;;5048837;28;20029;-81
2022/01/27 02:01:19;;;;;;;26.58;12.18;;;1.80;90.40;;;;;;5007797;28;20121;-81
2022/01/27 02:03:46;;;;;;;25.08;12.73;;;1.80;90.40;;;;;;5026922;28;20029;-81
2022/01/27 02:06:19;;;;;;;30.20;13.82;;;1.80;90.40;;;;;;5011170;28;21379;-81
2022/01/27 02:09:50;;;;;;;23.98;12.73;;;1.80;90.40;;;;;;5006088;28;20052;-81
2022/01/27 02:19:53;;;;;;;24.15;11.50;;;1.70;90.40;;;;;;5016153;28;20036;-80
2022/01/27 02:22:19;;;;;;;25.25;11.95;;;1.60;90.40;;;;;;5005457;28;20140;-81
2022/01/27 02:24:44;;;;;;;27.45;12.20;;;1.60;90.40;;;;;;5012381;28;20037;-80
2022/01/27 02:27:10;;;;;;;21.85;11.38;;;1.60;90.40;;;;;;4992452;28;20041;-81
2022/01/27 02:29:35;;;;;;;26.23;12.18;;;1.60;90.40;;;;;;5008017;28;20037;-81
2022/01/27 02:32:02;;;;;;;24.90;11.43;;;1.50;90.40;;;;;;5028011;28;20025;-81
2022/01/27 02:34:27;;;;;;;22.88;11.05;;;1.50;90.40;;;;;;5026325;28;20043;-81
2022/01/27 02:36:53;;;;;;;22.10;11.82;;;1.50;90.40;;;;;;5029625;28;20033;-81
2022/01/27 02:39:19;;;;;;;21.75;11.02;;;1.50;90.40;;;;;;4984841;28;20558;-81
2022/01/27 02:41:51;;;;;;;23.95;12.20;;;1.50;90.40;;;;;;5011286;28;20025;-81
2022/01/27 02:44:45;;;;;;;24.85;11.75;;;1.50;90.40;;;;;;5036877;28;20123;-81
2022/01/27 02:47:15;;;;;;;21.92;11.18;;;1.60;90.40;;;;;;5030492;28;20026;-81
2022/01/27 02:49:40;;;;;;;24.17;11.57;;;1.60;90.50;;;;;;5007948;28;20733;-81
2022/01/27 02:52:06;;;;;;;23.65;11.48;;;1.50;90.40;;;;;;5045280;28;20061;-81
2022/01/27 02:54:31;;;;;;;24.30;11.90;;;1.60;90.40;;;;;;5027740;28;20041;-81
2022/01/27 02:56:57;;;;;;;29.63;12.80;;;1.60;90.40;;;;;;5029849;28;20493;-80
2022/01/27 02:59:23;;;;;;;23.55;12.35;;;1.60;90.40;;;;;;5029148;28;20128;-81
2022/01/27 03:01:49;;;;;;;25.88;11.25;;;1.60;90.40;;;;;;5012391;28;20048;-81
2022/01/27 03:04:15;;;;;;;23.92;11.52;;;1.60;90.40;;;;;;5034117;28;20513;-81
2022/01/27 03:06:41;;;;;;;27.48;12.38;;;1.60;90.40;;;;;;4998228;28;20037;-81
2022/01/27 03:09:07;;;;;;;23.65;11.95;;;1.50;90.40;;;;;;5019001;28;20633;-81
2022/01/27 03:11:36;;;;;;;24.30;11.65;;;1.50;90.40;;;;;;5011072;28;20067;-81
2022/01/27 03:14:03;;;;;;;23.40;11.57;;;1.50;90.40;;;;;;5014298;28;20103;-81
2022/01/27 03:16:28;;;;;;;24.48;12.38;;;1.50;90.40;;;;;;5011539;28;20483;-81
2022/01/27 03:18:54;;;;;;;25.38;11.32;;;1.50;90.40;;;;;;5024136;28;20025;-80
2022/01/27 03:21:19;;;;;;;26.10;11.82;;;1.50;90.40;;;;;;4967466;28;20034;-80
2022/01/27 03:23:45;;;;;;;25.50;11.23;;;1.50;90.40;;;;;;5051105;28;20037;-81
2022/01/27 03:26:10;;;;;;;26.13;11.20;;;1.50;90.40;;;;;;5017160;28;20395;-80
2022/01/27 03:28:36;;;;;;;26.08;11.40;;;1.50;90.40;;;;;;5009356;28;20025;-81
2022/01/27 03:31:01;;;;;;;23.40;11.23;;;1.60;90.40;;;;;;5023541;28;20065;-81
2022/01/27 03:33:27;;;;;;;23.15;10.98;;;1.50;90.40;;;;;;5022850;28;20113;-80
2022/01/27 03:35:52;;;;;;;21.05;11.15;;;1.60;90.40;;;;;;5003057;28;20104;-80
2022/01/27 03:38:18;;;;;;;27.13;12.18;;;1.60;90.40;;;;;;5000869;28;20064;-80
2022/01/27 03:40:43;;;;;;;26.55;12.10;;;1.50;90.30;;;;;;5031041;28;20021;-81
2022/01/27 03:43:11;;;;;;;24.05;11.90;;;1.60;90.40;;;;;;5008646;28;20025;-81
2022/01/27 03:45:36;;;;;;;25.52;11.50;;;1.50;90.40;;;;;;4998890;28;20729;-81
2022/01/27 03:48:02;;;;;;;24.48;11.57;;;1.50;90.40;;;;;;5036097;28;20040;-81
2022/01/27 03:50:28;;;;;;;29.30;12.30;;;1.50;90.40;;;;;;4977957;28;20554;-80
2022/01/27 03:52:53;;;;;;;23.17;11.73;;;1.50;90.40;;;;;;5020655;28;20044;-81
2022/01/27 03:55:19;;;;;;;26.30;12.07;;;1.50;90.40;;;;;;5022799;28;20048;-80
2022/01/27 03:57:44;;;;;;;22.80;10.77;;;1.50;90.40;;;;;;5038500;28;20077;-80
2022/01/27 04:00:11;;;;;;;25.10;12.45;;;1.50;90.40;;;;;;5011092;28;20040;-81
2022/01/27 04:02:50;;;;;;;27.35;11.93;;;1.50;90.40;;;;;;5019242;28;20438;-81
2022/01/27 04:05:18;;;;;;;29.00;12.23;;;1.50;90.40;;;;;;5014690;28;20060;-80
2022/01/27 04:07:43;;;;;;;24.50;12.15;;;1.40;90.30;;;;;;5014729;28;20714;-80
2022/01/27 04:10:09;;;;;;;28.05;12.25;;;1.40;90.40;;;;;;5023331;28;20124;-80
2022/01/27 04:12:35;;;;;;;27.80;12.68;;;1.40;90.40;;;;;;5029978;28;20041;-80
2022/01/27 04:15:00;;;;;;;25.63;11.88;;;1.50;90.40;;;;;;5046772;28;20104;-81
2022/01/27 04:17:26;;;;;;;27.38;12.18;;;1.40;90.40;;;;;;4997513;28;20028;-80
2022/01/27 04:19:51;;;;;;;31.27;13.63;;;1.50;90.40;;;;;;5008521;28;20037;-81
2022/01/27 04:22:17;;;;;;;25.52;11.27;;;1.50;90.50;;;;;;5019201;28;20040;-81
2022/01/27 04:24:42;;;;;;;29.77;12.18;;;1.40;90.40;;;;;;5008022;28;20033;-80
2022/01/27 04:27:16;;;;;;;28.63;12.73;;;1.40;90.40;;;;;;5009318;28;20040;-81
2022/01/27 04:29:42;;;;;;;26.88;11.07;;;1.40;90.40;;;;;;4995157;28;20037;-80
2022/01/27 04:32:10;;;;;;;27.15;11.52;;;1.40;90.40;;;;;;5023738;28;20060;-80
2022/01/27 04:34:38;;;;;;;30.67;12.13;;;1.40;90.40;;;;;;5030707;28;20029;-80
2022/01/27 04:37:05;;;;;;;24.42;11.43;;;1.30;90.40;;;;;;5001643;28;20553;-81
2022/01/27 04:39:44;;;;;;;26.88;12.35;;;1.30;90.40;;;;;;5026913;28;20044;-80
2022/01/27 04:42:17;;;;;;;25.38;10.93;;;1.30;90.40;;;;;;5039338;28;20033;-81
2022/01/27 04:44:52;;;;;;;25.67;12.10;;;1.30;90.40;;;;;;5044957;28;20530;-80
2022/01/27 04:47:25;;;;;;;28.05;12.23;;;1.30;90.40;;;;;;5028053;28;20049;-81
2022/01/27 04:49:51;;;;;;;25.45;12.70;;;1.30;90.40;;;;;;5005769;28;20036;-81
2022/01/27 04:52:16;;;;;;;26.58;12.55;;;1.30;90.40;;;;;;5029279;28;20060;-81
2022/01/27 04:57:13;;;;;;;27.17;11.93;;;1.30;90.40;;;;;;5013302;28;20040;-81
2022/01/27 04:59:42;;;;;;;32.70;15.15;;;1.30;90.40;;;;;;5019900;28;20033;-81
2022/01/27 05:02:16;;;;;;;29.42;13.70;;;1.30;90.40;;;;;;5021087;28;20036;-81
2022/01/27 05:04:43;;;;;;;30.30;14.57;;;1.30;90.40;;;;;;5039189;28;20033;-80
2022/01/27 05:07:09;;;;;;;37.22;16.27;;;1.30;90.40;;;;;;4993201;28;20030;-80
2022/01/27 05:09:36;;;;;;;29.73;14.00;;;1.30;90.40;;;;;;5023451;28;20526;-81
2022/01/27 05:12:12;;;;;;;34.00;13.60;;;1.20;90.40;;;;;;4994823;28;20043;-81
2022/01/27 05:14:38;;;;;;;33.00;14.73;;;1.20;90.40;;;;;;5015399;28;20037;-81
2022/01/27 05:17:03;;;;;;;32.22;14.98;;;1.30;90.50;;;;;;5043762;28;20029;-81
2022/01/27 05:19:29;;;;;;;54.10;21.23;;;1.20;90.50;;;;;;5026681;28;20033;-81
2022/01/27 05:21:54;;;;;;;37.47;15.93;;;1.30;90.50;;;;;;4985210;28;20055;-82
2022/01/27 05:24:21;;;;;;;36.20;15.48;;;1.30;90.50;;;;;;5046297;28;20033;-83
2022/01/27 05:26:47;;;;;;;40.53;18.58;;;1.30;90.50;;;;;;5047972;28;20033;-83
2022/01/27 05:29:12;;;;;;;31.95;15.07;;;1.30;90.50;;;;;;5013155;28;20052;-84
2022/01/27 05:31:38;;;;;;;32.85;14.15;;;1.40;90.50;;;;;;5015260;28;20041;-84
2022/01/27 05:34:04;;;;;;;33.10;15.68;;;1.40;90.50;;;;;;5025669;28;20030;-84
2022/01/27 05:36:30;;;;;;;31.65;14.70;;;1.40;90.50;;;;;;5017731;28;20028;-84
2022/01/27 05:38:56;;;;;;;29.65;13.20;;;1.40;90.50;;;;;;5053453;28;20063;-84
2022/01/27 05:41:21;;;;;;;40.30;17.27;;;1.40;90.50;;;;;;5043133;28;20099;-83
2022/01/27 05:43:47;;;;;;;55.25;22.30;;;1.40;90.50;;;;;;5015811;28;20403;-85
2022/01/27 05:46:12;;;;;;;32.72;15.45;;;1.40;90.50;;;;;;5006905;28;20110;-83
2022/01/27 05:48:38;;;;;;;32.30;14.88;;;1.40;90.50;;;;;;5033606;28;20402;-82
2022/01/27 05:51:04;;;;;;;42.97;18.10;;;1.40;90.50;;;;;;5016867;28;20059;-84
2022/01/27 05:53:30;;;;;;;32.40;14.43;;;1.40;90.50;;;;;;5023953;28;20028;-83
2022/01/27 05:55:57;;;;;;;30.85;14.27;;;1.40;90.50;;;;;;5046728;28;20021;-82
2022/01/27 05:58:22;;;;;;;34.60;15.68;;;1.40;90.50;;;;;;5025408;28;20037;-82
2022/01/27 06:00:48;;;;;;;36.38;16.35;;;1.40;90.50;;;;;;5041346;28;20036;-82
2022/01/27 06:03:13;;;;;;;31.23;12.98;;;1.40;90.50;;;;;;5023729;28;20040;-82
2022/01/27 06:05:39;;;;;;;23.77;11.05;;;1.40;90.50;;;;;;5031748;28;20033;-84
2022/01/27 06:08:05;;;;;;;23.80;11.57;;;1.40;90.50;;;;;;5022524;28;20035;-82
2022/01/27 06:10:30;;;;;;;24.77;11.02;;;1.40;90.50;;;;;;5033425;28;20111;-84
2022/01/27 06:12:56;;;;;;;26.25;11.63;;;1.40;90.50;;;;;;5035338;28;20036;-83
2022/01/27 06:15:22;;;;;;;24.45;11.73;;;1.40;90.50;;;;;;5022965;28;20044;-82
2022/01/27 06:17:48;;;;;;;27.80;13.05;;;1.40;90.50;;;;;;5017300;28;20104;-83
2022/01/27 06:20:14;;;;;;;27.02;11.88;;;1.40;90.50;;;;;;5038546;28;20076;-82
2022/01/27 06:22:40;;;;;;;22.90;9.98;;;1.40;90.50;;;;;;5017798;28;20518;-82
2022/01/27 06:25:06;;;;;;;24.42;10.02;;;1.40;90.50;;;;;;5033554;28;20048;-84
2022/01/27 06:27:32;;;;;;;26.30;10.90;;;1.40;90.50;;;;;;5032989;28;20048;-84
2022/01/27 06:29:57;;;;;;;23.20;10.15;;;1.30;90.40;;;;;;4989491;28;20029;-83
2022/01/27 06:32:23;;;;;;;22.38;10.57;;;1.30;90.40;;;;;;5007206;28;20033;-82
2022/01/27 06:34:48;;;;;;;26.23;10.73;;;1.30;90.50;;;;;;5014221;28;20036;-83
2022/01/27 06:37:14;;;;;;;23.90;9.90;;;1.40;90.50;;;;;;4990350;28;20036;-84
2022/01/27 06:39:39;;;;;;;24.92;10.98;;;1.40;90.50;;;;;;5009871;28;20059;-82
2022/01/27 06:42:07;;;;;;;28.08;10.55;;;1.30;90.40;;;;;;5007442;28;20047;-83
2022/01/27 06:44:33;;;;;;;26.05;10.52;;;1.30;90.40;;;;;;5037272;28;20144;-82
2022/01/27 06:46:59;;;;;;;23.48;10.55;;;1.30;90.50;;;;;;5035632;28;20041;-82
2022/01/27 06:49:25;;;;;;;25.58;10.10;;;1.30;90.50;;;;;;5008529;28;20072;-82
2022/01/27 06:51:51;;;;;;;27.48;10.70;;;1.30;90.50;;;;;;5029822;28;20041;-83
2022/01/27 06:54:17;;;;;;;23.77;10.70;;;1.30;90.50;;;;;;5021373;28;20084;-83
2022/01/27 06:56:43;;;;;;;26.35;10.77;;;1.30;90.50;;;;;;5036707;28;20029;-83
2022/01/27 06:59:08;;;;;;;24.63;10.35;;;1.30;90.50;;;;;;5018046;28;20040;-83
2022/01/27 07:01:34;;;;;;;27.27;11.23;;;1.30;90.50;;;;;;5002031;28;20360;-82
2022/01/27 07:04:01;;;;;;;24.15;11.02;;;1.30;90.50;;;;;;5034230;28;20021;-82
2022/01/27 07:06:26;;;;;;;26.42;11.25;;;1.30;90.50;;;;;;5021002;28;20086;-81
2022/01/27 07:08:52;;;;;;;23.80;10.93;;;1.30;90.50;;;;;;5022501;28;20045;-83
2022/01/27 07:11:17;;;;;;;22.42;10.00;;;1.30;90.40;;;;;;5001157;28;20503;-83
2022/01/27 07:13:44;;;;;;;24.00;10.25;;;1.30;90.50;;;;;;5028975;28;20384;-83
2022/01/27 07:16:10;;;;;;;23.27;10.52;;;1.30;90.50;;;;;;5019346;28;20484;-83
2022/01/27 07:18:36;;;;;;;25.60;10.45;;;1.30;90.50;;;;;;5028806;28;20071;-83
2022/01/27 07:21:02;;;;;;;26.60;10.32;;;1.30;90.40;;;;;;4993584;28;20061;-82
2022/01/27 07:23:28;;;;;;;25.35;10.75;;;1.40;90.50;;;;;;5026742;28;20097;-82
2022/01/27 07:25:54;;;;;;;26.92;10.73;;;1.30;90.40;;;;;;5002165;28;20113;-85
2022/01/27 07:28:19;;;;;;;23.33;9.88;;;1.40;90.50;;;;;;5024008;28;20029;-82
2022/01/27 07:30:45;;;;;;;24.00;10.45;;;1.40;90.50;;;;;;5014273;28;20091;-84
2022/01/27 07:33:10;;;;;;;24.77;10.80;;;1.40;90.50;;;;;;5041209;28;20021;-84
2022/01/27 07:35:36;;;;;;;23.73;10.73;;;1.40;90.50;;;;;;5027666;28;20021;-82
2022/01/27 07:38:01;;;;;;;25.63;9.68;;;1.40;90.50;;;;;;5020249;28;20079;-84
2022/01/27 07:40:28;;;;;;;21.30;9.50;;;1.40;90.50;;;;;;4998241;28;20046;-82
2022/01/27 07:42:53;;;;;;;23.75;9.40;;;1.40;90.50;;;;;;5019240;28;20495;-85
2022/01/27 07:45:19;;;;;;;18.17;8.57;;;1.40;90.40;;;;;;5003568;28;20041;-82
2022/01/27 07:47:44;;;;;;;21.85;10.25;;;1.40;90.50;;;;;;5013241;28;20039;-84
2022/01/27 07:50:10;;;;;;;21.00;9.32;;;1.40;90.50;;;;;;5046012;28;20403;-82
2022/01/27 07:52:35;;;;;;;19.55;9.50;;;1.40;90.50;;;;;;5000782;28;20072;-81
2022/01/27 07:55:01;;;;;;;25.98;10.43;;;1.40;90.50;;;;;;4980974;28;20418;-82
2022/01/27 07:57:26;;;;;;;21.33;9.65;;;1.40;90.50;;;;;;5025602;28;20049;-82
2022/01/27 07:59:52;;;;;;;34.78;13.13;;;1.40;90.50;;;;;;5039233;28;20025;-83
2022/01/27 08:02:17;;;;;;;23.77;10.48;;;1.40;90.50;;;;;;5036210;28;20037;-83
2022/01/27 08:04:44;;;;;;;29.30;13.30;;;1.50;90.50;;;;;;5031919;28;20029;-85
2022/01/27 08:07:10;;;;;;;23.42;10.18;;;1.50;90.50;;;;;;5006897;28;20032;-84
2022/01/27 08:09:36;;;;;;;22.55;10.00;;;1.50;90.50;;;;;;5049475;28;20063;-82
2022/01/27 08:12:01;;;;;;;22.33;9.93;;;1.50;90.50;;;;;;5034722;28;20510;-82
2022/01/27 08:14:27;;;;;;;19.98;9.07;;;1.50;90.50;;;;;;5026654;28;20093;-83
2022/01/27 08:16:52;;;;;;;23.92;9.68;;;1.50;90.50;;;;;;5023690;28;20585;-82
2022/01/27 08:19:18;;;;;;;23.95;10.38;;;1.50;90.50;;;;;;5022418;28;20398;-82
2022/01/27 08:21:44;;;;;;;24.42;10.70;;;1.50;90.50;;;;;;5037211;28;20097;-86
2022/01/27 08:24:10;;;;;;;24.08;10.40;;;1.50;90.50;;;;;;5027017;28;20455;-81
2022/01/27 08:26:41;;;;;;;19.92;9.60;;;1.60;90.90;;;;;;5048360;28;20059;-82
2022/01/27 08:29:23;;;;;;;23.65;9.75;;;1.60;90.50;;;;;;5032785;28;20083;-83
2022/01/27 08:31:56;;;;;;;23.50;9.35;;;1.60;90.50;;;;;;5014170;28;20050;-82
2022/01/27 08:34:32;;;;;;;16.80;8.35;;;1.60;90.50;;;;;;5032681;28;20145;-82
2022/01/27 08:36:58;;;;;;;24.02;9.75;;;1.60;90.50;;;;;;5021737;28;20057;-82
2022/01/27 08:39:24;;;;;;;20.25;8.90;;;1.60;90.40;;;;;;5019954;28;20100;-83
2022/01/27 08:41:50;;;;;;;22.33;10.02;;;1.60;90.40;;;;;;5008093;28;20033;-82
2022/01/27 08:44:15;;;;;;;23.05;10.07;;;1.60;90.50;;;;;;5029392;28;20036;-82
2022/01/27 08:46:41;;;;;;;21.55;9.82;;;1.60;90.50;;;;;;5015820;28;20025;-83
2022/01/27 08:49:07;;;;;;;21.30;10.13;;;1.70;90.50;;;;;;5034924;28;20134;-85
2022/01/27 08:51:32;;;;;;;24.92;10.85;;;1.70;90.50;;;;;;5016232;28;20040;-84
2022/01/27 08:53:58;;;;;;;22.73;9.77;;;1.70;90.50;;;;;;5034904;28;20746;-83
2022/01/27 08:56:23;;;;;;;24.33;10.35;;;1.60;90.50;;;;;;5038109;28;20036;-83
2022/01/27 08:58:49;;;;;;;22.85;9.65;;;1.70;90.50;;;;;;5022476;28;20037;-84
2022/01/27 09:01:15;;;;;;;23.83;10.02;;;1.70;90.60;;;;;;5033410;28;20037;-84
2022/01/27 09:03:41;;;;;;;24.13;11.68;;;1.70;90.60;;;;;;5008883;28;20094;-82
2022/01/27 09:06:06;;;;;;;26.30;11.82;;;1.70;90.50;;;;;;5051149;28;20078;-83
2022/01/27 09:08:32;;;;;;;26.50;12.00;;;1.70;90.50;;;;;;5054642;28;20056;-85
2022/01/27 09:10:57;;;;;;;25.90;12.05;;;1.70;90.60;;;;;;5049914;28;20026;-84
2022/01/27 09:13:23;;;;;;;22.35;10.23;;;1.60;90.90;;;;;;5016843;28;20040;-82
2022/01/27 09:15:49;;;;;;;21.95;9.90;;;1.60;90.50;;;;;;5014830;28;20036;-83
2022/01/27 09:18:15;;;;;;;22.05;9.85;;;1.60;90.50;;;;;;5013609;28;20032;-84
2022/01/27 09:20:42;;;;;;;21.17;10.05;;;1.60;90.50;;;;;;5009266;28;20037;-83
2022/01/27 09:23:13;;;;;;;23.92;10.70;;;1.70;90.60;;;;;;4983476;28;20037;-85
2022/01/27 09:25:44;;;;;;;24.17;11.35;;;1.70;90.60;;;;;;5018793;28;20091;-83
2022/01/27 09:28:11;;;;;;;38.30;18.70;;;1.70;90.60;;;;;;5014680;28;20083;-85
2022/01/27 09:30:36;;;;;;;21.58;9.82;;;1.70;90.60;;;;;;4986974;28;20038;-83
2022/01/27 09:33:02;;;;;;;17.85;9.40;;;1.70;90.60;;;;;;5006362;28;20048;-84
2022/01/27 09:35:28;;;;;;;22.15;9.98;;;1.80;90.60;;;;;;5033221;28;20047;-83
2022/01/27 09:37:54;;;;;;;21.02;9.02;;;1.80;90.60;;;;;;5019620;28;20037;-82
2022/01/27 09:40:19;;;;;;;25.13;11.75;;;1.80;90.60;;;;;;5015453;28;20064;-85
2022/01/27 09:42:50;;;;;;;18.50;9.10;;;1.80;90.90;;;;;;5013659;28;20096;-82
2022/01/27 09:45:16;;;;;;;20.40;9.73;;;1.90;90.60;;;;;;5024539;28;20033;-83
2022/01/27 09:47:42;;;;;;;18.75;9.10;;;1.90;90.60;;;;;;5011005;28;20089;-83
2022/01/27 09:52:40;;;;;;;23.13;9.38;;;1.90;90.60;;;;;;5023929;28;20074;-84
2022/01/27 09:55:06;;;;;;;19.70;8.77;;;1.90;90.60;;;;;;5024145;28;20084;-82
2022/01/27 09:57:32;;;;;;;25.38;12.02;;;2.00;90.60;;;;;;5027566;28;20059;-83
2022/01/27 09:59:57;;;;;;;27.30;12.18;;;2.00;90.60;;;;;;5031674;28;20041;-84
2022/01/27 10:02:25;;;;;;;19.63;9.40;;;2.00;90.60;;;;;;5015075;28;20032;-83
2022/01/27 10:04:55;;;;;;;18.25;8.77;;;2.00;90.60;;;;;;5031290;28;20032;-83
2022/01/27 10:07:27;;;;;;;22.95;9.93;;;2.00;90.60;;;;;;5044971;28;20120;-84
2022/01/27 10:10:13;;;;;;;18.00;8.98;;;2.00;90.60;;;;;;5049169;28;20028;-82
2022/01/27 10:12:43;;;;;;;17.65;8.15;;;2.00;90.60;;;;;;5007768;28;20665;-83
2022/01/27 10:15:20;;;;;;;17.15;7.95;;;2.10;90.60;;;;;;5015144;28;20056;-82
2022/01/27 10:18:08;;;;;;;16.63;7.85;;;2.10;90.60;;;;;;5037834;28;20025;-82
2022/01/27 10:20:37;;;;;;;16.90;8.30;;;2.20;90.60;;;;;;5027378;28;20086;-83
2022/01/27 10:23:14;;;;;;;18.00;8.45;;;2.10;90.60;;;;;;5029504;28;20048;-82
2022/01/27 10:25:47;;;;;;;15.20;7.80;;;2.20;90.60;;;;;;5014772;28;20044;-84
2022/01/27 10:28:24;;;;;;;16.08;7.63;;;2.20;90.60;;;;;;5025415;28;20036;-84
2022/01/27 10:31:07;;;;;;;18.67;8.00;;;2.20;90.60;;;;;;5018101;28;20025;-83
2022/01/27 10:34:03;;;;;;;15.25;7.22;;;2.30;90.60;;;;;;5037700;28;20449;-82
2022/01/27 10:36:30;;;;;;;16.42;7.15;;;2.30;90.60;;;;;;5008729;28;20033;-83
2022/01/27 10:38:58;;;;;;;16.70;8.40;;;2.30;90.60;;;;;;5028831;28;20028;-84
2022/01/27 10:41:32;;;;;;;15.88;8.40;;;2.30;90.60;;;;;;5005419;28;20040;-83
2022/01/27 10:44:15;;;;;;;16.70;7.65;;;2.40;90.60;;;;;;5007807;28;20163;-83
2022/01/27 10:46:58;;;;;;;19.25;8.70;;;2.40;90.60;;;;;;5002468;28;20040;-84
2022/01/27 10:49:31;;;;;;;14.77;7.05;;;2.40;90.60;;;;;;5033699;28;20038;-82
2022/01/27 10:51:57;;;;;;;18.02;8.00;;;2.40;90.60;;;;;;5001008;28;20107;-85
2022/01/27 10:54:34;;;;;;;18.58;8.90;;;2.40;90.60;;;;;;5043358;28;20018;-83
2022/01/27 10:57:04;;;;;;;17.45;7.95;;;2.50;90.60;;;;;;5018329;28;20064;-83
2022/01/27 10:59:32;;;;;;;15.88;7.25;;;2.50;90.60;;;;;;5005976;28;20045;-84
2022/01/27 11:01:58;;;;;;;14.70;7.32;;;2.50;90.60;;;;;;5017829;28;20043;-83
2022/01/27 11:04:37;;;;;;;14.57;7.25;;;2.50;90.60;;;;;;5022863;28;20112;-82
2022/01/27 11:07:05;;;;;;;17.58;7.45;;;2.50;90.60;;;;;;5027524;28;20036;-84
2022/01/27 11:09:34;;;;;;;12.68;6.57;;;2.60;90.60;;;;;;5029054;28;20445;-82
2022/01/27 11:12:03;;;;;;;15.23;7.25;;;2.60;90.60;;;;;;5050537;28;20083;-83
2022/01/27 11:14:29;;;;;;;14.95;7.88;;;2.60;90.60;;;;;;5007387;28;20074;-84
2022/01/27 11:16:59;;;;;;;16.13;7.47;;;2.60;90.60;;;;;;5015170;28;20037;-82
2022/01/27 11:24:55;;;;;;;15.57;7.68;;;2.60;90.50;;;;;;5031667;28;20690;-82
2022/01/27 11:27:25;;;;;;;20.08;7.82;;;2.60;90.50;;;;;;5032132;28;20033;-83
2022/01/27 11:29:56;;;;;;;12.60;6.28;;;2.60;90.50;;;;;;4988596;28;20025;-82
2022/01/27 11:32:41;;;;;;;14.70;7.45;;;2.70;90.60;;;;;;5014656;28;20076;-83
2022/01/27 11:35:22;;;;;;;15.15;6.68;;;2.70;90.60;;;;;;5029910;28;20038;-82
2022/01/27 11:37:51;;;;;;;14.43;6.70;;;2.70;90.50;;;;;;5016391;28;20037;-83
2022/01/27 11:40:18;;;;;;;12.25;6.60;;;2.70;90.50;;;;;;5025919;28;20037;-83
2022/01/27 11:42:56;;;;;;;14.65;6.80;;;2.70;90.50;;;;;;5024837;28;20535;-82
2022/01/27 11:45:21;;;;;;;12.05;6.15;;;2.80;90.50;;;;;;5029723;28;20044;-85
2022/01/27 11:47:54;;;;;;;14.30;6.78;;;2.70;90.50;;;;;;5037966;28;20072;-83
2022/01/27 11:50:32;;;;;;;14.00;6.72;;;2.80;90.50;;;;;;5030670;28;20037;-83
2022/01/27 11:52:57;;;;;;;13.30;6.82;;;2.80;90.50;;;;;;5009915;28;20610;-83
2022/01/27 11:55:26;;;;;;;12.43;6.47;;;2.80;90.50;;;;;;5034585;28;20034;-82
2022/01/27 11:57:52;;;;;;;14.93;7.85;;;2.80;90.50;;;;;;5044305;28;20028;-84
2022/01/27 12:00:20;;;;;;;13.20;6.68;;;2.80;90.50;;;;;;5014907;28;20460;-82
2022/01/27 12:03:07;;;;;;;12.60;6.57;;;2.80;90.50;;;;;;5030942;28;20654;-83
2022/01/27 12:06:14;;;;;;;13.85;6.88;;;2.90;90.50;;;;;;5019606;28;20525;-84
2022/01/27 12:08:39;;;;;;;13.93;6.80;;;2.90;90.50;;;;;;5049604;28;20037;-83
2022/01/27 12:11:09;;;;;;;13.43;6.55;;;2.90;90.50;;;;;;5015331;28;20049;-83
2022/01/27 12:13:42;;;;;;;11.88;6.28;;;2.90;90.40;;;;;;5025259;28;20029;-83
2022/01/27 12:19:10;;;;;;;10.88;5.80;;;2.90;90.40;;;;;;5050423;28;20037;-83
2022/01/27 12:21:46;;;;;;;10.45;5.97;;;3.00;90.40;;;;;;5035534;28;20029;-84
2022/01/27 12:24:16;;;;;;;13.32;5.75;;;3.00;90.40;;;;;;5040205;28;20087;-84
2022/01/27 12:26:56;;;;;;;21.27;11.68;;;3.00;90.40;;;;;;5048574;28;20032;-84
2022/01/27 12:29:35;;;;;;;22.17;11.95;;;3.10;90.80;;;;;;5021151;28;20053;-85
2022/01/27 12:32:21;;;;;;;13.82;7.60;;;3.00;90.40;;;;;;5017761;28;20040;-83
2022/01/27 12:34:51;;;;;;;24.27;10.55;;;3.10;90.40;;;;;;5043036;28;20041;-84
2022/01/27 12:37:20;;;;;;;19.85;9.20;;;3.10;90.40;;;;;;5018618;28;20049;-84
2022/01/27 12:40:15;;;;;;;12.80;7.43;;;3.00;90.30;;;;;;4989602;28;20056;-82
2022/01/27 12:42:55;;;;;;;13.45;7.07;;;3.10;90.30;;;;;;5005728;28;20099;-84
2022/01/27 12:45:26;;;;;;;14.23;6.90;;;3.10;90.30;;;;;;5041552;28;20157;-83
2022/01/27 12:47:52;;;;;;;12.82;6.88;;;3.10;90.40;;;;;;5034413;28;20096;-84
2022/01/27 12:50:20;;;;;;;13.88;7.05;;;3.00;90.40;;;;;;5032060;28;20124;-83
2022/01/27 12:52:47;;;;;;;10.68;5.68;;;3.10;90.40;;;;;;5045371;28;20103;-81
2022/01/27 12:55:14;;;;;;;15.40;6.40;;;3.10;90.40;;;;;;5031615;28;20039;-83
2022/01/27 12:57:40;;;;;;;11.45;6.30;;;3.10;90.40;;;;;;5031828;28;20032;-82
2022/01/27 13:00:08;;;;;;;10.57;5.82;;;3.10;90.30;;;;;;5000945;28;20089;-82
2022/01/27 13:02:34;;;;;;;12.82;7.20;;;3.10;90.30;;;;;;5006936;28;20104;-82
2022/01/27 13:05:00;;;;;;;13.05;5.93;;;3.10;90.30;;;;;;5025475;28;20119;-83
2022/01/27 13:07:26;;;;;;;13.38;6.18;;;3.10;90.30;;;;;;5021561;28;20040;-81
2022/01/27 13:10:06;;;;;;;10.77;6.03;;;3.10;90.30;;;;;;4993655;28;20457;-83
2022/01/27 13:12:39;;;;;;;12.05;6.32;;;3.10;90.20;;;;;;5045152;28;20076;-82
2022/01/27 13:15:09;;;;;;;14.80;6.85;;;3.10;90.30;;;;;;5026307;28;20036;-82
2022/01/27 13:17:43;;;;;;;13.30;5.82;;;3.10;90.30;;;;;;5028252;28;20037;-83
2022/01/27 13:20:18;;;;;;;12.77;5.88;;;3.10;90.30;;;;;;5046267;28;20090;-82
2022/01/27 13:22:49;;;;;;;32.15;12.68;;;3.10;90.30;;;;;;5017786;28;20059;-83
2022/01/27 13:25:15;;;;;;;20.43;9.93;;;3.10;90.30;;;;;;5031215;28;20044;-83
2022/01/27 13:27:41;;;;;;;19.10;9.30;;;3.10;90.30;;;;;;5017305;28;20053;-83
2022/01/27 13:30:07;;;;;;;14.65;7.10;;;3.10;90.30;;;;;;4999241;28;20061;-84
2022/01/27 13:32:33;;;;;;;11.52;6.10;;;3.10;90.30;;;;;;4995380;28;20103;-82
2022/01/27 13:34:58;;;;;;;14.77;6.65;;;3.10;90.30;;;;;;5012337;28;20084;-82
2022/01/27 13:37:32;;;;;;;13.63;6.72;;;3.10;90.30;;;;;;5013632;28;20083;-83